Time;durP1;ratioP1;P1;durP2;ratioP2;P2;SDS_P1;SDS_P2;PMS_P1;PMS_P2;Temp;Humidity;BMP_temperature;BMP_pressure;BME280_temperature;BME280_humidity;BME280_pressure;Samples;Min_cycle;Max_cycle;Signal;HPM_P1;HPM_P2
2021/12/15 00:02:23;;;;;;;54.03;19.97;;;;;;;4.83;100.00;101982.13;5088131;28;20202;-75
2021/12/15 00:04:52;;;;;;;58.90;20.47;;;;;;;4.83;100.00;101982.13;5099635;28;20301;-75
2021/12/15 00:07:19;;;;;;;54.53;19.07;;;;;;;4.84;100.00;101983.03;5093121;28;20562;-74
2021/12/15 00:09:46;;;;;;;56.07;19.57;;;;;;;4.82;100.00;101982.09;5098938;28;20214;-74
2021/12/15 00:12:15;;;;;;;55.33;19.33;;;;;;;4.83;100.00;101979.56;5088172;28;20201;-74
2021/12/15 00:14:42;;;;;;;57.90;19.87;;;;;;;4.82;100.00;101980.41;5088005;28;20308;-74
2021/12/15 00:17:09;;;;;;;57.87;20.20;;;;;;;4.83;100.00;101989.88;5093969;27;20198;-75
2021/12/15 00:19:37;;;;;;;56.33;20.23;;;;;;;4.84;100.00;101983.91;5088362;28;20296;-75
2021/12/15 00:22:04;;;;;;;58.17;19.67;;;;;;;4.85;100.00;101984.75;5083349;28;20194;-73
2021/12/15 00:24:31;;;;;;;53.33;19.90;;;;;;;4.84;100.00;101986.47;5087652;28;20194;-75
2021/12/15 00:26:58;;;;;;;53.27;20.07;;;;;;;4.83;100.00;101989.88;5093351;28;20674;-74
2021/12/15 00:29:26;;;;;;;59.90;21.97;;;;;;;4.84;100.00;101993.38;5093260;28;20218;-75
2021/12/15 00:31:53;;;;;;;56.07;20.13;;;;;;;4.83;100.00;101996.78;5086200;28;20209;-74
2021/12/15 00:34:21;;;;;;;58.57;21.07;;;;;;;4.84;100.00;101980.44;5086228;28;20214;-74
2021/12/15 00:36:48;;;;;;;57.50;21.67;;;;;;;4.84;100.00;101983.91;5097275;28;20212;-75
2021/12/15 00:39:18;;;;;;;53.60;20.73;;;;;;;4.85;100.00;101979.59;5091662;28;20249;-75
2021/12/15 00:41:45;;;;;;;55.10;20.20;;;;;;;4.84;100.00;101989.06;5086886;28;20888;-74
2021/12/15 00:44:12;;;;;;;56.27;19.77;;;;;;;4.84;100.00;101989.06;5095378;28;20202;-74
2021/12/15 00:46:41;;;;;;;53.93;20.33;;;;;;;4.83;100.00;101986.44;5082095;28;20198;-74
2021/12/15 00:49:09;;;;;;;56.23;20.97;;;;;;;4.84;100.00;101993.38;5092984;28;20228;-75
2021/12/15 00:51:37;;;;;;;49.30;19.57;;;;;;;4.83;100.00;101989.88;5091582;28;20205;-75
2021/12/15 00:54:04;;;;;;;52.20;18.80;;;;;;;4.84;100.00;101980.44;5095929;28;20210;-75
2021/12/15 00:56:31;;;;;;;47.13;19.03;;;;;;;4.84;100.00;101986.47;5095178;28;20197;-75
2021/12/15 00:58:57;;;;;;;46.27;19.07;;;;;;;4.82;100.00;101983.00;5095005;28;20198;-73
2021/12/15 01:01:25;;;;;;;56.20;19.77;;;;;;;4.84;100.00;101988.19;5086514;28;20198;-74
2021/12/15 01:03:53;;;;;;;53.33;19.13;;;;;;;4.83;100.00;101991.63;5088205;28;20220;-74
2021/12/15 01:06:21;;;;;;;56.53;20.67;;;;;;;4.84;100.00;101981.31;5090378;28;20202;-74
2021/12/15 01:08:54;;;;;;;50.97;19.43;;;;;;;4.84;100.00;101983.03;5095070;28;20193;-75
2021/12/15 01:11:29;;;;;;;53.20;20.40;;;;;;;4.86;100.00;101983.94;5093677;28;20849;-75
2021/12/15 01:19:50;;;;;;;43.67;19.77;;;;;;;4.86;100.00;101991.69;5086305;28;20308;-73
2021/12/15 01:22:24;;;;;;;59.23;20.10;;;;;;;4.87;100.00;101991.72;5090173;28;20209;-74
2021/12/15 01:24:52;;;;;;;60.07;20.13;;;;;;;4.87;100.00;101993.41;5083270;28;20204;-75
2021/12/15 01:27:19;;;;;;;52.97;19.63;;;;;;;4.88;100.00;101997.75;5092714;28;20677;-75
2021/12/15 01:29:45;;;;;;;54.77;20.43;;;;;;;4.88;100.00;101995.16;5081211;28;20647;-74
2021/12/15 01:32:13;;;;;;;54.13;19.97;;;;;;;4.88;100.00;102005.50;5089936;28;20205;-74
2021/12/15 01:34:41;;;;;;;51.63;21.50;;;;;;;4.88;100.00;102014.13;5084735;28;20209;-75
2021/12/15 01:37:08;;;;;;;50.63;19.73;;;;;;;4.90;100.00;102008.97;5089458;28;20280;-74
2021/12/15 01:39:36;;;;;;;51.23;19.33;;;;;;;4.91;100.00;102009.00;5087269;28;20286;-75
2021/12/15 01:42:04;;;;;;;53.47;21.00;;;;;;;4.91;100.00;102003.84;5091708;28;20198;-74
2021/12/15 01:47:14;;;;;;;58.90;21.13;;;;;;;4.93;100.00;101998.72;5102893;28;20197;-75
2021/12/15 01:49:45;;;;;;;52.70;20.33;;;;;;;4.93;100.00;101998.72;5089000;28;20230;-74
2021/12/15 01:52:15;;;;;;;61.47;19.77;;;;;;;4.93;100.00;102001.28;5082297;28;20204;-74
2021/12/15 01:54:46;;;;;;;59.53;20.57;;;;;;;4.93;100.00;102009.91;5087182;28;20206;-74
2021/12/15 01:57:14;;;;;;;57.47;20.10;;;;;;;4.92;100.00;102000.44;5090882;28;20693;-74
2021/12/15 01:59:42;;;;;;;60.13;21.67;;;;;;;4.93;100.00;101999.56;5098477;28;20221;-75
2021/12/15 02:02:09;;;;;;;51.87;20.63;;;;;;;4.92;100.00;102000.44;5092811;28;20194;-75
2021/12/15 02:04:36;;;;;;;55.63;19.27;;;;;;;4.93;100.00;102006.47;5094734;28;20208;-74
2021/12/15 02:07:08;;;;;;;53.50;19.23;;;;;;;4.92;100.00;102007.28;5098834;28;20529;-75
2021/12/15 02:10:01;;;;;;;58.40;19.20;;;;;;;4.92;100.00;102002.13;5101870;28;20766;-74
2021/12/15 02:12:33;;;;;;;52.37;20.77;;;;;;;4.91;100.00;101995.22;5095210;28;20278;-74
2021/12/15 02:15:01;;;;;;;49.90;18.20;;;;;;;4.91;100.00;102005.56;5093525;28;20308;-74
2021/12/15 02:17:28;;;;;;;47.50;19.20;;;;;;;4.90;100.00;102001.22;5094722;28;20211;-75
2021/12/15 02:19:55;;;;;;;49.43;19.90;;;;;;;4.89;100.00;102002.94;5098261;28;20241;-74
2021/12/15 02:22:23;;;;;;;49.63;19.17;;;;;;;4.89;100.00;102004.63;5105955;28;20197;-75
2021/12/15 02:24:51;;;;;;;54.13;19.20;;;;;;;4.89;100.00;102004.63;5104102;28;20288;-75
2021/12/15 02:27:18;;;;;;;54.50;18.43;;;;;;;4.89;100.00;102007.22;5092330;28;20205;-75
2021/12/15 02:29:47;;;;;;;46.47;19.17;;;;;;;4.89;100.00;102014.97;5095883;28;20312;-74
2021/12/15 02:32:20;;;;;;;48.07;18.63;;;;;;;4.88;100.00;102008.09;5094357;28;20255;-75
2021/12/15 02:37:04;;;;;;;44.33;18.37;;;;;;;4.88;100.00;102010.66;5096528;28;20271;-75
2021/12/15 02:37:46;;;;;;;46.90;18.13;;;;;;;4.90;100.00;102014.16;5099584;28;20194;-75
2021/12/15 02:40:16;;;;;;;50.40;18.20;;;;;;;4.90;100.00;102012.44;5090280;28;20226;-75
2021/12/15 02:42:45;;;;;;;50.00;18.00;;;;;;;4.89;100.00;102010.69;5095542;28;20285;-73
2021/12/15 02:45:15;;;;;;;45.20;18.80;;;;;;;4.89;100.00;102018.44;5088220;28;20194;-74
2021/12/15 02:47:42;;;;;;;46.70;17.83;;;;;;;4.91;100.00;102019.34;5086895;28;20221;-74
2021/12/15 02:50:12;;;;;;;42.87;17.00;;;;;;;4.91;100.00;102014.19;5092728;28;20201;-74
2021/12/15 02:52:39;;;;;;;42.10;17.53;;;;;;;4.93;100.00;102024.56;5091552;28;20690;-74
2021/12/15 02:55:08;;;;;;;51.13;18.57;;;;;;;4.93;100.00;102027.13;5097982;28;20202;-75
2021/12/15 02:57:35;;;;;;;41.53;17.23;;;;;;;4.93;100.00;102019.38;5100004;28;20194;-75
2021/12/15 03:00:16;;;;;;;46.53;16.97;;;;;;;4.93;100.00;102027.13;5105105;28;20252;-74
2021/12/15 03:05:31;;;;;;;45.90;18.30;;;;;;;4.93;100.00;102030.59;5071872;28;20198;-75
2021/12/15 03:08:05;;;;;;;48.90;18.07;;;;;;;4.95;100.00;102029.75;5096666;28;20829;-74
2021/12/15 03:16:05;;;;;;;44.20;16.73;;;;;;;4.96;100.00;102034.06;5088405;28;20217;-74
2021/12/15 03:18:31;;;;;;;44.10;17.17;;;;;;;4.94;100.00;102031.44;5090236;28;20272;-75
2021/12/15 03:21:00;;;;;;;48.23;17.60;;;;;;;4.95;100.00;102030.63;5097070;28;20209;-74
2021/12/15 03:23:32;;;;;;;45.50;17.50;;;;;;;4.96;100.00;102026.31;5093239;28;20202;-74
2021/12/15 03:26:01;;;;;;;47.87;17.20;;;;;;;4.95;100.00;102030.63;5094778;28;20276;-74
2021/12/15 03:34:11;;;;;;;46.63;17.40;;;;;;;4.95;100.00;102027.16;5085898;28;20198;-74
2021/12/15 03:37:05;;;;;;;42.50;16.53;;;;;;;4.94;100.00;102028.88;5094494;28;20890;-75
2021/12/15 03:39:34;;;;;;;41.67;16.93;;;;;;;4.96;100.00;102027.22;5089566;28;20216;-74
2021/12/15 03:42:06;;;;;;;43.47;16.33;;;;;;;4.95;100.00;102030.63;5091927;28;20197;-75
2021/12/15 03:44:35;;;;;;;45.30;16.60;;;;;;;4.96;100.00;102034.06;5102208;28;20207;-75
2021/12/15 03:47:05;;;;;;;41.10;16.47;;;;;;;4.94;100.00;102031.44;5095989;28;20284;-75
2021/12/15 03:49:31;;;;;;;51.10;16.30;;;;;;;4.95;100.00;102027.16;5089298;28;20229;-75
2021/12/15 03:51:58;;;;;;;47.60;16.37;;;;;;;4.95;100.00;102022.00;5077139;28;20551;-75
2021/12/15 03:54:24;;;;;;;42.63;16.93;;;;;;;4.95;100.00;102020.28;5079312;28;20205;-74
2021/12/15 03:56:51;;;;;;;37.87;15.33;;;;;;;4.95;100.00;102016.84;5096963;28;20408;-74
2021/12/15 03:59:19;;;;;;;43.90;17.03;;;;;;;4.94;100.00;102023.69;5100981;28;20273;-74
2021/12/15 04:01:46;;;;;;;49.83;17.20;;;;;;;4.96;100.00;102027.22;5088020;28;20194;-75
2021/12/15 04:04:13;;;;;;;46.40;16.73;;;;;;;4.98;100.00;102027.22;5087668;28;20198;-74
2021/12/15 04:06:40;;;;;;;45.20;17.60;;;;;;;4.98;100.00;102025.50;5090831;28;20201;-75
2021/12/15 04:09:10;;;;;;;47.20;15.77;;;;;;;5.00;100.00;102020.38;5092928;27;20210;-74
2021/12/15 04:11:38;;;;;;;45.57;15.30;;;;;;;4.99;100.00;102022.06;5087558;28;20194;-75
2021/12/15 04:14:08;;;;;;;49.77;16.27;;;;;;;5.01;100.00;102027.28;5088079;28;20198;-74
2021/12/15 04:16:46;;;;;;;47.97;16.27;;;;;;;5.00;100.00;102035.88;5085216;28;20621;-74
2021/12/15 04:19:20;;;;;;;48.37;15.40;;;;;;;5.00;100.00;102026.41;5092818;28;20313;-75
2021/12/15 04:21:47;;;;;;;45.23;16.40;;;;;;;5.00;100.00;102022.97;5088726;28;20230;-74
2021/12/15 04:24:17;;;;;;;44.00;14.90;;;;;;;5.02;100.00;102021.28;5095233;27;20193;-75
2021/12/15 04:26:45;;;;;;;43.07;15.33;;;;;;;5.03;100.00;102025.59;5088974;28;20570;-75
2021/12/15 04:29:13;;;;;;;44.20;16.07;;;;;;;5.03;100.00;102020.41;5094448;28;20217;-75
2021/12/15 04:31:44;;;;;;;43.90;14.73;;;;;;;5.04;100.00;102030.78;5092112;28;20834;-75
2021/12/15 04:34:13;;;;;;;47.33;15.03;;;;;;;5.03;100.00;102028.16;5091004;27;20204;-75
2021/12/15 04:36:42;;;;;;;45.90;15.63;;;;;;;5.03;100.00;102033.34;5093651;28;20214;-74
2021/12/15 04:39:11;;;;;;;36.17;14.60;;;;;;;5.04;100.00;102041.13;5082655;28;20220;-75
2021/12/15 04:41:38;;;;;;;41.50;16.37;;;;;;;5.05;100.00;102036.84;5090212;27;20206;-74
2021/12/15 04:44:10;;;;;;;41.20;14.77;;;;;;;5.06;100.00;102047.19;5089462;28;20198;-75
2021/12/15 04:46:39;;;;;;;40.50;14.27;;;;;;;5.05;100.00;102045.47;5091597;28;20193;-75
2021/12/15 04:49:09;;;;;;;43.00;16.07;;;;;;;5.07;100.00;102042.91;5090120;28;20229;-74
2021/12/15 04:51:36;;;;;;;41.83;15.50;;;;;;;5.06;100.00;102043.75;5091060;28;20201;-74
2021/12/15 04:54:02;;;;;;;38.63;15.00;;;;;;;5.06;100.00;102051.50;5090053;28;20204;-75
2021/12/15 04:56:29;;;;;;;45.30;15.90;;;;;;;5.06;100.00;102051.50;5099057;28;20214;-74
2021/12/15 04:58:56;;;;;;;43.53;15.97;;;;;;;5.06;100.00;102054.94;5096995;28;20201;-74
2021/12/15 05:01:24;;;;;;;41.80;17.53;;;;;;;5.07;100.00;102048.94;5093263;28;20193;-74
2021/12/15 05:03:50;;;;;;;40.40;15.50;;;;;;;5.06;100.00;102054.94;5087497;28;20205;-75
2021/12/15 05:06:18;;;;;;;39.73;16.50;;;;;;;5.07;100.00;102063.59;5102650;28;20193;-74
2021/12/15 05:08:44;;;;;;;36.43;15.73;;;;;;;5.06;100.00;102060.13;5094591;28;20197;-74
2021/12/15 05:11:13;;;;;;;39.03;15.00;;;;;;;5.06;100.00;102065.28;5090652;28;20201;-75
2021/12/15 05:13:39;;;;;;;46.23;16.40;;;;;;;5.04;100.00;102059.22;5085210;28;20594;-75
2021/12/15 05:16:07;;;;;;;39.67;16.53;;;;;;;5.04;100.00;102055.78;5094443;28;20213;-74
2021/12/15 05:18:34;;;;;;;47.03;17.77;;;;;;;5.03;100.00;102060.09;5092960;28;20577;-74
2021/12/15 05:21:01;;;;;;;49.23;17.73;;;;;;;5.03;100.00;102060.09;5096033;28;20221;-74
2021/12/15 05:23:31;;;;;;;42.23;17.07;;;;;;;5.02;100.00;102058.31;5084126;28;20187;-75
2021/12/15 05:25:58;;;;;;;43.40;16.20;;;;;;;5.02;100.00;102060.06;5075049;28;20254;-75
2021/12/15 05:28:25;;;;;;;43.10;16.90;;;;;;;5.02;100.00;102057.47;5078015;28;20198;-75
2021/12/15 05:30:51;;;;;;;42.23;16.53;;;;;;;5.01;100.00;102060.88;5076787;28;20222;-75
2021/12/15 05:33:18;;;;;;;43.33;17.57;;;;;;;5.02;100.00;102065.22;5081575;28;20205;-74
2021/12/15 05:35:45;;;;;;;42.80;16.37;;;;;;;5.01;100.00;102078.97;5088776;28;20567;-75
2021/12/15 05:38:12;;;;;;;46.67;18.20;;;;;;;5.01;100.00;102076.38;5098681;28;20674;-75
2021/12/15 05:40:40;;;;;;;46.97;17.03;;;;;;;5.00;100.00;102085.88;5086134;28;20221;-75
2021/12/15 05:43:07;;;;;;;48.73;18.17;;;;;;;5.00;100.00;102080.69;5093171;28;20201;-75
2021/12/15 05:45:38;;;;;;;43.20;17.60;;;;;;;4.98;100.00;102077.22;5087747;28;20747;-73
2021/12/15 05:48:06;;;;;;;43.97;17.47;;;;;;;5.00;100.00;102080.69;5094753;28;20212;-75
2021/12/15 05:50:36;;;;;;;42.10;17.17;;;;;;;4.98;100.00;102068.56;5085208;28;20225;-73
2021/12/15 05:53:04;;;;;;;44.93;16.43;;;;;;;4.98;100.00;102074.63;5078855;28;20586;-74
2021/12/15 05:55:31;;;;;;;48.43;17.03;;;;;;;4.96;100.00;102081.50;5069802;28;20214;-74
2021/12/15 05:57:58;;;;;;;46.27;17.17;;;;;;;4.97;100.00;102080.63;5072217;28;20199;-75
2021/12/15 06:00:28;;;;;;;43.67;18.10;;;;;;;4.96;100.00;102088.34;5074432;28;20225;-75
2021/12/15 06:02:57;;;;;;;38.87;16.53;;;;;;;4.94;100.00;102080.56;5069765;28;20292;-75
2021/12/15 06:05:24;;;;;;;41.17;16.00;;;;;;;4.91;100.00;102076.22;5081303;28;20198;-75
2021/12/15 06:07:50;;;;;;;40.47;15.03;;;;;;;4.90;100.00;102071.88;5077737;28;20664;-75
2021/12/15 06:10:21;;;;;;;38.63;15.77;;;;;;;4.89;100.00;102070.16;5077849;28;20217;-74
2021/12/15 06:12:49;;;;;;;43.30;15.57;;;;;;;4.88;100.00;102080.44;5077391;28;20297;-75
2021/12/15 06:15:21;;;;;;;46.43;16.27;;;;;;;4.88;100.00;102094.22;5083469;28;20205;-73
2021/12/15 06:17:48;;;;;;;40.33;16.53;;;;;;;4.87;100.00;102084.75;5081781;28;20199;-74
2021/12/15 06:20:15;;;;;;;43.43;17.33;;;;;;;4.88;100.00;102095.97;5078505;28;20256;-75
2021/12/15 06:22:44;;;;;;;43.30;15.33;;;;;;;4.87;100.00;102100.25;5081141;28;20207;-75
2021/12/15 06:25:10;;;;;;;42.77;16.03;;;;;;;4.85;100.00;102104.50;5080262;28;20201;-74
2021/12/15 06:27:40;;;;;;;41.07;16.47;;;;;;;4.83;100.00;102103.59;5087593;28;20645;-75
2021/12/15 06:30:09;;;;;;;40.80;16.80;;;;;;;4.83;100.00;102115.66;5080442;28;20218;-75
2021/12/15 06:32:37;;;;;;;39.13;14.40;;;;;;;4.81;100.00;102113.03;5086571;28;20201;-75
2021/12/15 06:35:05;;;;;;;37.77;15.27;;;;;;;4.82;100.00;102114.78;5081860;28;20201;-74
2021/12/15 06:37:32;;;;;;;41.33;15.10;;;;;;;4.82;100.00;102108.72;5083299;28;20219;-75
2021/12/15 06:39:58;;;;;;;41.93;14.73;;;;;;;4.81;100.00;102120.78;5083915;28;20214;-75
2021/12/15 06:42:25;;;;;;;41.93;15.33;;;;;;;4.80;100.00;102120.75;5077372;28;20231;-73
2021/12/15 06:44:52;;;;;;;40.10;15.30;;;;;;;4.79;100.00;102124.19;5079295;28;20206;-74
2021/12/15 06:47:46;;;;;;;38.43;15.30;;;;;;;4.78;100.00;102127.59;5084089;28;20185;-74
2021/12/15 06:58:24;;;;;;;35.83;13.93;;;;;;;4.73;100.00;102125.81;5094354;28;20272;-73
2021/12/15 07:00:54;;;;;;;35.87;14.40;;;;;;;4.72;100.00;102120.59;5090516;28;20579;-75
2021/12/15 07:03:22;;;;;;;35.07;14.27;;;;;;;4.73;100.00;102130.97;5078375;28;20194;-75
2021/12/15 07:05:52;;;;;;;36.60;15.60;;;;;;;4.71;100.00;102117.16;5083947;28;20198;-75
2021/12/15 07:08:19;;;;;;;38.33;14.67;;;;;;;4.71;100.00;102124.91;5093667;28;20193;-75
2021/12/15 07:10:48;;;;;;;38.13;15.00;;;;;;;4.71;100.00;102124.91;5097446;28;20218;-75
2021/12/15 07:13:16;;;;;;;38.03;16.77;;;;;;;4.70;100.00;102112.81;5093072;28;20688;-75
2021/12/15 07:15:44;;;;;;;43.13;20.50;;;;;;;4.69;100.00;102116.22;5091981;28;20247;-74
2021/12/15 07:18:14;;;;;;;40.70;18.07;;;;;;;4.67;100.00;102117.91;5099891;28;20779;-74
2021/12/15 07:20:47;;;;;;;37.20;15.17;;;;;;;4.68;100.00;102117.06;5097872;28;20213;-75
2021/12/15 07:23:17;;;;;;;42.27;16.07;;;;;;;4.68;100.00;102114.50;5091029;28;20675;-73
2021/12/15 07:25:46;;;;;;;43.53;16.70;;;;;;;4.67;100.00;102119.63;5094504;28;20193;-74
2021/12/15 07:28:13;;;;;;;37.10;15.90;;;;;;;4.70;100.00;102124.88;5104109;28;20193;-75
2021/12/15 07:30:40;;;;;;;38.60;14.67;;;;;;;4.68;100.00;102119.66;5093376;28;20225;-74
2021/12/15 07:33:09;;;;;;;36.10;15.67;;;;;;;4.71;100.00;102124.91;5096143;28;20201;-74
2021/12/15 07:35:37;;;;;;;40.83;14.37;;;;;;;4.72;100.00;102124.06;5095661;28;20681;-74
2021/12/15 07:38:03;;;;;;;34.60;13.33;;;;;;;4.72;100.00;102118.88;5093414;28;20204;-74
2021/12/15 07:40:32;;;;;;;34.70;14.40;;;;;;;4.73;100.00;102122.31;5094648;28;20221;-74
2021/12/15 07:43:07;;;;;;;40.20;13.57;;;;;;;4.73;100.00;102122.31;5103016;28;20229;-75
2021/12/15 07:45:37;;;;;;;36.53;15.10;;;;;;;4.75;100.00;102131.00;5082974;28;20194;-73
2021/12/15 07:48:05;;;;;;;35.30;13.57;;;;;;;4.78;100.00;102125.03;5079120;28;20202;-74
2021/12/15 07:50:33;;;;;;;41.87;14.37;;;;;;;4.80;100.00;102134.56;5090589;28;20221;-74
2021/12/15 07:53:00;;;;;;;36.63;13.63;;;;;;;4.83;100.00;102124.28;5084174;28;20205;-75
2021/12/15 07:55:28;;;;;;;36.97;13.27;;;;;;;4.84;100.00;102125.16;5092152;28;20563;-75
2021/12/15 07:57:56;;;;;;;35.80;14.43;;;;;;;4.87;100.00;102125.22;5095176;28;20225;-75
2021/12/15 08:00:24;;;;;;;36.80;13.77;;;;;;;4.88;100.00;102122.66;5103086;28;20217;-75
2021/12/15 08:02:50;;;;;;;36.17;13.90;;;;;;;4.91;100.00;102130.50;5093233;28;20198;-75
2021/12/15 08:05:17;;;;;;;40.63;14.50;;;;;;;4.93;100.00;102133.13;5098825;28;20194;-75
2021/12/15 08:07:44;;;;;;;36.63;13.83;;;;;;;4.95;100.00;102136.59;5082264;28;20558;-75
2021/12/15 08:10:12;;;;;;;34.33;13.17;;;;;;;4.98;100.00;102134.09;5088971;28;20222;-74
2021/12/15 08:12:39;;;;;;;36.57;14.33;;;;;;;4.99;100.00;102142.69;5092469;28;20672;-75
2021/12/15 08:15:08;;;;;;;40.43;16.17;;;;;;;4.99;100.00;102146.16;5082365;28;20202;-75
2021/12/15 08:17:35;;;;;;;37.23;14.40;;;;;;;5.02;100.00;102153.97;5085937;28;20214;-75
2021/12/15 08:20:03;;;;;;;40.03;14.40;;;;;;;5.02;100.00;102153.97;5091462;28;20213;-75
2021/12/15 08:22:29;;;;;;;36.47;15.70;;;;;;;5.04;100.00;102156.59;5091213;28;20202;-74
2021/12/15 08:24:57;;;;;;;43.70;16.37;;;;;;;5.07;100.00;102161.84;5094806;28;20212;-75
2021/12/15 08:27:23;;;;;;;34.93;14.67;;;;;;;5.07;100.00;102154.94;5093543;28;20197;-74
2021/12/15 08:29:49;;;;;;;36.77;15.73;;;;;;;5.08;100.00;102150.66;5092455;28;20221;-74
2021/12/15 08:32:17;;;;;;;43.33;18.20;;;;;;;5.10;100.00;102154.13;5088544;28;20670;-75
2021/12/15 08:34:44;;;;;;;37.63;17.00;;;;;;;5.13;100.00;102155.06;5089500;28;20194;-74
2021/12/15 08:37:13;;;;;;;37.07;15.13;;;;;;;5.14;100.00;102158.53;5090189;28;20630;-75
2021/12/15 08:39:40;;;;;;;36.43;16.03;;;;;;;5.17;100.00;102158.63;5080649;28;20245;-75
2021/12/15 08:42:08;;;;;;;33.77;14.23;;;;;;;5.21;100.00;102156.97;5082769;28;20237;-75
2021/12/15 08:44:35;;;;;;;37.23;14.77;;;;;;;5.24;100.00;102154.41;5084448;28;20206;-74
2021/12/15 08:47:01;;;;;;;38.60;14.37;;;;;;;5.25;100.00;102162.22;5094203;28;20539;-75
2021/12/15 08:49:29;;;;;;;31.53;12.73;;;;;;;5.27;100.00;102152.75;5083309;28;20603;-75
2021/12/15 08:51:56;;;;;;;33.87;14.17;;;;;;;5.28;100.00;102158.84;5097312;28;20197;-73
2021/12/15 08:54:23;;;;;;;30.43;14.73;;;;;;;5.31;100.00;102151.09;5086119;28;20198;-75
2021/12/15 08:56:50;;;;;;;30.50;11.97;;;;;;;5.32;100.00;102152.88;5089618;28;20245;-75
2021/12/15 08:59:18;;;;;;;29.83;13.40;;;;;;;5.39;100.00;102157.31;5086711;28;20774;-75
2021/12/15 09:01:46;;;;;;;39.77;15.47;;;;;;;5.40;100.00;102153.91;5081482;28;20221;-75
2021/12/15 09:04:13;;;;;;;28.83;12.07;;;;;;;5.44;100.00;102157.41;5091652;28;20193;-75
2021/12/15 09:06:44;;;;;;;27.57;12.17;;;;;;;5.49;100.00;102159.25;5086735;28;20579;-75
2021/12/15 09:09:13;;;;;;;34.17;13.27;;;;;;;5.54;100.00;102158.44;5085481;28;20225;-74
2021/12/15 09:11:40;;;;;;;31.20;14.23;;;;;;;5.59;100.00;102159.41;5081885;28;20212;-75
2021/12/15 09:14:10;;;;;;;27.67;13.03;;;;;;;5.62;100.00;102157.75;5092219;28;20210;-75
2021/12/15 09:16:37;;;;;;;26.10;12.93;;;;;;;5.66;100.00;102159.56;5093407;28;20225;-75
2021/12/15 09:19:05;;;;;;;25.53;12.87;;;;;;;5.68;100.00;102159.56;5085621;28;20612;-75
2021/12/15 09:21:34;;;;;;;23.83;12.23;;;;;;;5.68;100.00;102164.75;5092250;28;20305;-75
2021/12/15 09:24:04;;;;;;;24.40;12.90;;;;;;;5.65;100.00;102168.19;5082812;28;20231;-74
2021/12/15 09:26:31;;;;;;;23.93;11.17;;;;;;;5.72;100.00;102165.69;5086445;28;20197;-75
2021/12/15 09:28:58;;;;;;;24.60;11.30;;;;;;;5.80;100.00;102171.88;5094169;28;20201;-75
2021/12/15 09:31:25;;;;;;;20.50;11.10;;;;;;;5.81;100.00;102177.09;5092501;28;20202;-75
2021/12/15 09:33:54;;;;;;;28.20;11.97;;;;;;;5.87;100.00;102168.56;5097001;28;20288;-75
2021/12/15 09:36:23;;;;;;;24.30;11.40;;;;;;;5.84;100.00;102168.50;5084188;28;20735;-75
2021/12/15 09:38:53;;;;;;;21.47;11.40;;;;;;;5.90;100.00;102170.34;5088314;28;20202;-74
2021/12/15 09:41:23;;;;;;;24.23;12.00;;;;;;;5.93;100.00;102173.88;5096911;28;20196;-75
2021/12/15 09:43:52;;;;;;;20.77;12.50;;;;;;;5.97;100.00;102172.22;5098688;28;20921;-75
2021/12/15 09:46:29;;;;;;;19.43;11.20;;;;;;;5.92;100.00;102177.28;5090802;28;20284;-74
2021/12/15 09:57:23;;;;;;;49.83;28.30;;;;;;;6.06;100.00;102178.41;5086198;28;20674;-75
2021/12/15 10:02:49;;;;;;;24.70;15.17;;;;;;;6.13;100.00;102163.88;5079956;28;20237;-75
2021/12/15 10:05:35;;;;;;;17.70;11.57;;;;;;;6.15;100.00;102166.50;5088798;28;20193;-75
2021/12/15 10:11:15;;;;;;;17.23;9.20;;;;;;;6.16;100.00;102163.94;5085760;28;20778;-75
2021/12/15 10:19:19;;;;;;;16.67;10.00;;;;;;;6.21;100.00;102167.47;5084032;28;20337;-75
2021/12/15 10:21:58;;;;;;;16.57;9.40;;;;;;;6.27;100.00;102168.41;5087739;28;20293;-75
2021/12/15 10:24:30;;;;;;;14.63;9.00;;;;;;;6.24;100.00;102172.72;5085522;28;20213;-75
2021/12/15 10:26:58;;;;;;;16.57;9.60;;;;;;;6.23;100.00;102165.78;5098561;28;20196;-75
2021/12/15 10:29:26;;;;;;;12.80;7.90;;;;;;;6.29;100.00;102166.72;5089268;28;20328;-74
2021/12/15 10:32:02;;;;;;;13.30;8.30;;;;;;;6.28;100.00;102163.28;5096117;27;20558;-75
2021/12/15 10:34:29;;;;;;;13.77;8.30;;;;;;;6.36;100.00;102161.66;5086414;28;20946;-75
2021/12/15 10:36:57;;;;;;;16.93;9.07;;;;;;;6.36;100.00;102160.78;5094539;28;20292;-75
2021/12/15 10:39:24;;;;;;;18.70;9.60;;;;;;;6.31;100.00;102158.13;5091423;28;20221;-75
2021/12/15 10:41:53;;;;;;;12.37;8.70;;;;;;;6.31;100.00;102152.06;5096899;28;20210;-75
2021/12/15 10:44:25;;;;;;;12.37;8.17;;;;;;;6.35;100.00;102154.75;5097063;28;20957;-73
2021/12/15 10:46:56;;;;;;;13.83;7.93;;;;;;;6.35;100.00;102152.16;5088187;28;20227;-74
2021/12/15 10:49:25;;;;;;;13.40;8.17;;;;;;;6.33;100.00;102152.97;5091515;28;20225;-75
2021/12/15 10:51:55;;;;;;;11.60;7.60;;;;;;;6.34;100.00;102149.53;5090647;28;20251;-75
2021/12/15 10:54:25;;;;;;;12.30;7.97;;;;;;;6.40;100.00;102152.19;5081139;28;20207;-75
2021/12/15 10:56:55;;;;;;;16.77;8.60;;;;;;;6.41;100.00;102160.00;5080968;28;20630;-75
2021/12/15 10:59:23;;;;;;;13.27;7.67;;;;;;;6.42;100.00;102153.09;5091722;28;20249;-75
2021/12/15 11:01:55;;;;;;;17.73;9.97;;;;;;;6.46;100.00;102144.53;5082868;28;20191;-75
2021/12/15 11:04:35;;;;;;;17.63;8.30;;;;;;;6.49;100.00;102142.00;5089988;28;20563;-75
2021/12/15 11:07:11;;;;;;;13.83;7.77;;;;;;;6.50;100.00;102142.88;5092276;28;20185;-75
2021/12/15 11:09:39;;;;;;;13.20;8.17;;;;;;;6.48;100.00;102148.03;5091323;28;20225;-75
2021/12/15 11:12:10;;;;;;;15.40;10.23;;;;;;;6.50;100.00;102151.50;5089000;28;20285;-75
2021/12/15 11:14:39;;;;;;;12.07;7.57;;;;;;;6.56;100.00;102149.00;5085192;28;20199;-75
2021/12/15 11:17:13;;;;;;;13.13;8.53;;;;;;;6.63;100.00;102144.75;5078261;28;20225;-75
2021/12/15 11:19:45;;;;;;;22.77;15.83;;;;;;;6.65;100.00;102148.28;5089773;28;20226;-76
2021/12/15 11:22:34;;;;;;;17.50;12.80;;;;;;;6.70;100.00;102144.03;5094619;28;20570;-74
2021/12/15 11:25:03;;;;;;;13.73;7.47;;;;;;;6.74;100.00;102135.44;5093011;28;20738;-75
2021/12/15 11:27:30;;;;;;;13.53;8.03;;;;;;;6.72;100.00;102144.03;5101488;28;20203;-75
2021/12/15 11:29:56;;;;;;;11.97;7.70;;;;;;;6.71;100.00;102137.13;5100621;28;20215;-75
2021/12/15 11:32:43;;;;;;;11.27;7.00;;;;;;;6.68;100.00;102142.25;5105648;28;20194;-75
2021/12/15 11:35:15;;;;;;;12.53;7.17;;;;;;;6.73;100.00;102138.00;5093181;28;20203;-75
2021/12/15 11:37:47;;;;;;;13.37;7.43;;;;;;;6.76;100.00;102144.09;5092115;28;20302;-74
2021/12/15 11:40:15;;;;;;;14.97;8.30;;;;;;;6.73;100.00;102144.06;5100667;28;20223;-75
2021/12/15 11:42:44;;;;;;;11.50;7.20;;;;;;;6.75;100.00;102136.31;5089869;28;20193;-74
2021/12/15 11:45:13;;;;;;;11.30;7.23;;;;;;;6.76;100.00;102140.66;5090660;28;20209;-75
2021/12/15 11:47:41;;;;;;;11.47;7.20;;;;;;;6.76;100.00;102136.31;5091216;28;20686;-73
2021/12/15 11:50:12;;;;;;;12.30;7.07;;;;;;;6.77;100.00;102137.19;5085989;28;20218;-75
2021/12/15 11:52:42;;;;;;;14.17;7.27;;;;;;;6.80;100.00;102134.66;5089829;28;20217;-75
2021/12/15 11:55:22;;;;;;;12.57;6.67;;;;;;;6.84;100.00;102128.63;5098461;28;20291;-74
2021/12/15 11:57:48;;;;;;;13.10;7.17;;;;;;;6.82;100.00;102136.44;5094666;28;20223;-75
2021/12/15 12:00:18;;;;;;;10.67;7.03;;;;;;;6.79;100.00;102138.97;5092573;28;20845;-74
2021/12/15 12:02:48;;;;;;;11.37;7.03;;;;;;;6.81;100.00;102139.84;5090393;28;20209;-74
2021/12/15 12:05:20;;;;;;;10.73;7.00;;;;;;;6.78;100.00;102139.81;5099282;28;20225;-75
2021/12/15 12:07:49;;;;;;;9.97;6.90;;;;;;;6.77;100.00;102137.19;5091960;28;20195;-76
2021/12/15 12:10:21;;;;;;;10.93;6.73;;;;;;;6.78;100.00;102129.44;5092066;28;20215;-74